sensor_id;sensor_type;location;lat;lon;timestamp;P1;durP1;ratioP1;P2;durP2;ratioP2
39044;SDS011;52192;52.002;5.956;2023-04-08T00:01:51;0.75;;;0.75;;
39044;SDS011;52192;52.002;5.956;2023-04-08T00:04:17;0.93;;;0.93;;
39044;SDS011;52192;52.002;5.956;2023-04-08T00:06:43;2.40;;;0.95;;
39044;SDS011;52192;52.002;5.956;2023-04-08T00:09:08;1.20;;;0.98;;
39044;SDS011;52192;52.002;5.956;2023-04-08T00:11:34;1.15;;;0.85;;
39044;SDS011;52192;52.002;5.956;2023-04-08T00:14:02;2.00;;;1.23;;
39044;SDS011;52192;52.002;5.956;2023-04-08T00:16:28;0.95;;;0.70;;
39044;SDS011;52192;52.002;5.956;2023-04-08T00:18:54;0.90;;;0.90;;
39044;SDS011;52192;52.002;5.956;2023-04-08T00:21:20;1.23;;;1.00;;
39044;SDS011;52192;52.002;5.956;2023-04-08T00:23:47;1.02;;;0.90;;
39044;SDS011;52192;52.002;5.956;2023-04-08T00:26:13;1.55;;;1.10;;
39044;SDS011;52192;52.002;5.956;2023-04-08T00:28:38;1.48;;;1.02;;
39044;SDS011;52192;52.002;5.956;2023-04-08T00:31:05;1.63;;;0.98;;
39044;SDS011;52192;52.002;5.956;2023-04-08T00:33:30;1.63;;;0.98;;
39044;SDS011;52192;52.002;5.956;2023-04-08T00:35:56;1.33;;;0.98;;
39044;SDS011;52192;52.002;5.956;2023-04-08T00:38:22;1.60;;;1.00;;
39044;SDS011;52192;52.002;5.956;2023-04-08T00:40:47;1.45;;;1.08;;
39044;SDS011;52192;52.002;5.956;2023-04-08T00:43:13;1.45;;;1.27;;
39044;SDS011;52192;52.002;5.956;2023-04-08T00:45:40;2.50;;;1.52;;
39044;SDS011;52192;52.002;5.956;2023-04-08T00:48:06;1.15;;;0.95;;
39044;SDS011;52192;52.002;5.956;2023-04-08T00:50:32;2.08;;;1.27;;
39044;SDS011;52192;52.002;5.956;2023-04-08T00:52:57;1.35;;;0.88;;
39044;SDS011;52192;52.002;5.956;2023-04-08T00:55:23;1.92;;;1.55;;
39044;SDS011;52192;52.002;5.956;2023-04-08T00:57:49;1.55;;;1.45;;
39044;SDS011;52192;52.002;5.956;2023-04-08T01:00:15;1.77;;;0.98;;
39044;SDS011;52192;52.002;5.956;2023-04-08T01:02:54;1.92;;;1.15;;
39044;SDS011;52192;52.002;5.956;2023-04-08T01:08:26;2.72;;;1.65;;
39044;SDS011;52192;52.002;5.956;2023-04-08T01:10:57;1.88;;;1.35;;
39044;SDS011;52192;52.002;5.956;2023-04-08T01:13:25;2.38;;;1.60;;
39044;SDS011;52192;52.002;5.956;2023-04-08T01:15:55;2.67;;;1.73;;
39044;SDS011;52192;52.002;5.956;2023-04-08T01:18:21;1.95;;;1.30;;
39044;SDS011;52192;52.002;5.956;2023-04-08T01:20:48;2.50;;;1.48;;
39044;SDS011;52192;52.002;5.956;2023-04-08T01:26:12;0.98;;;0.98;;
39044;SDS011;52192;52.002;5.956;2023-04-08T01:28:49;2.15;;;1.48;;
39044;SDS011;52192;52.002;5.956;2023-04-08T01:31:21;2.17;;;1.15;;
39044;SDS011;52192;52.002;5.956;2023-04-08T01:33:49;2.85;;;1.13;;
39044;SDS011;52192;52.002;5.956;2023-04-08T01:36:16;1.00;;;0.73;;
39044;SDS011;52192;52.002;5.956;2023-04-08T01:38:43;1.33;;;1.10;;
39044;SDS011;52192;52.002;5.956;2023-04-08T01:41:11;1.70;;;1.00;;
39044;SDS011;52192;52.002;5.956;2023-04-08T01:43:38;1.30;;;1.00;;
39044;SDS011;52192;52.002;5.956;2023-04-08T01:46:05;0.90;;;0.90;;
39044;SDS011;52192;52.002;5.956;2023-04-08T01:48:32;0.90;;;0.90;;
39044;SDS011;52192;52.002;5.956;2023-04-08T01:50:59;0.50;;;0.50;;
39044;SDS011;52192;52.002;5.956;2023-04-08T01:53:26;1.08;;;0.80;;
39044;SDS011;52192;52.002;5.956;2023-04-08T01:55:54;0.90;;;0.90;;
39044;SDS011;52192;52.002;5.956;2023-04-08T01:58:22;1.15;;;0.80;;
39044;SDS011;52192;52.002;5.956;2023-04-08T02:00:50;0.73;;;0.63;;
39044;SDS011;52192;52.002;5.956;2023-04-08T02:03:18;1.42;;;0.93;;
39044;SDS011;52192;52.002;5.956;2023-04-08T02:05:46;0.82;;;0.80;;
39044;SDS011;52192;52.002;5.956;2023-04-08T02:08:12;0.98;;;0.77;;
39044;SDS011;52192;52.002;5.956;2023-04-08T02:10:38;1.40;;;0.80;;
39044;SDS011;52192;52.002;5.956;2023-04-08T02:13:03;1.38;;;0.75;;
39044;SDS011;52192;52.002;5.956;2023-04-08T02:15:32;1.08;;;0.80;;
39044;SDS011;52192;52.002;5.956;2023-04-08T02:18:04;1.13;;;0.93;;
39044;SDS011;52192;52.002;5.956;2023-04-08T02:20:42;0.80;;;0.77;;
39044;SDS011;52192;52.002;5.956;2023-04-08T02:23:18;0.70;;;0.70;;
39044;SDS011;52192;52.002;5.956;2023-04-08T02:25:46;1.30;;;0.75;;
39044;SDS011;52192;52.002;5.956;2023-04-08T02:28:13;0.85;;;0.57;;
39044;SDS011;52192;52.002;5.956;2023-04-08T02:30:42;1.48;;;1.30;;
39044;SDS011;52192;52.002;5.956;2023-04-08T02:33:12;1.20;;;0.70;;
39044;SDS011;52192;52.002;5.956;2023-04-08T02:35:40;1.60;;;0.90;;
39044;SDS011;52192;52.002;5.956;2023-04-08T02:38:08;1.08;;;0.70;;
39044;SDS011;52192;52.002;5.956;2023-04-08T02:40:35;1.30;;;1.20;;
39044;SDS011;52192;52.002;5.956;2023-04-08T02:43:01;1.40;;;1.30;;
39044;SDS011;52192;52.002;5.956;2023-04-08T02:45:27;1.35;;;1.15;;
39044;SDS011;52192;52.002;5.956;2023-04-08T02:47:55;0.80;;;0.70;;
39044;SDS011;52192;52.002;5.956;2023-04-08T02:50:22;1.40;;;1.08;;
39044;SDS011;52192;52.002;5.956;2023-04-08T02:52:48;1.83;;;1.02;;
39044;SDS011;52192;52.002;5.956;2023-04-08T02:55:13;1.15;;;1.00;;
39044;SDS011;52192;52.002;5.956;2023-04-08T02:57:40;1.23;;;1.13;;
39044;SDS011;52192;52.002;5.956;2023-04-08T03:00:07;1.70;;;1.30;;
39044;SDS011;52192;52.002;5.956;2023-04-08T03:02:33;1.90;;;1.27;;
39044;SDS011;52192;52.002;5.956;2023-04-08T03:04:59;2.50;;;1.40;;
39044;SDS011;52192;52.002;5.956;2023-04-08T03:07:25;1.75;;;1.45;;
39044;SDS011;52192;52.002;5.956;2023-04-08T03:09:52;2.45;;;1.38;;
39044;SDS011;52192;52.002;5.956;2023-04-08T03:12:19;1.42;;;1.10;;
39044;SDS011;52192;52.002;5.956;2023-04-08T03:14:45;1.58;;;1.45;;
39044;SDS011;52192;52.002;5.956;2023-04-08T03:17:11;1.40;;;0.95;;
39044;SDS011;52192;52.002;5.956;2023-04-08T03:19:36;2.33;;;1.35;;
39044;SDS011;52192;52.002;5.956;2023-04-08T03:22:02;0.75;;;0.75;;
39044;SDS011;52192;52.002;5.956;2023-04-08T03:24:27;1.98;;;1.30;;
39044;SDS011;52192;52.002;5.956;2023-04-08T03:26:53;1.75;;;1.40;;
39044;SDS011;52192;52.002;5.956;2023-04-08T03:29:19;1.30;;;1.15;;
39044;SDS011;52192;52.002;5.956;2023-04-08T03:31:44;1.20;;;0.88;;
39044;SDS011;52192;52.002;5.956;2023-04-08T03:34:10;1.80;;;1.42;;
39044;SDS011;52192;52.002;5.956;2023-04-08T03:36:36;1.50;;;1.00;;
39044;SDS011;52192;52.002;5.956;2023-04-08T03:39:01;1.60;;;1.00;;
39044;SDS011;52192;52.002;5.956;2023-04-08T03:41:28;2.42;;;0.95;;
39044;SDS011;52192;52.002;5.956;2023-04-08T03:43:54;2.45;;;1.75;;
39044;SDS011;52192;52.002;5.956;2023-04-08T03:46:19;2.63;;;1.63;;
39044;SDS011;52192;52.002;5.956;2023-04-08T03:48:46;1.75;;;1.60;;
39044;SDS011;52192;52.002;5.956;2023-04-08T03:51:12;2.15;;;1.85;;
39044;SDS011;52192;52.002;5.956;2023-04-08T03:53:38;3.58;;;2.45;;
39044;SDS011;52192;52.002;5.956;2023-04-08T03:56:03;1.95;;;1.45;;
39044;SDS011;52192;52.002;5.956;2023-04-08T03:58:29;2.63;;;1.60;;
39044;SDS011;52192;52.002;5.956;2023-04-08T04:00:59;2.22;;;1.63;;
39044;SDS011;52192;52.002;5.956;2023-04-08T04:03:26;2.28;;;1.85;;
39044;SDS011;52192;52.002;5.956;2023-04-08T04:05:51;2.15;;;1.95;;
39044;SDS011;52192;52.002;5.956;2023-04-08T04:08:17;4.57;;;2.22;;
39044;SDS011;52192;52.002;5.956;2023-04-08T04:10:43;4.07;;;2.05;;
39044;SDS011;52192;52.002;5.956;2023-04-08T04:13:08;2.95;;;2.22;;
39044;SDS011;52192;52.002;5.956;2023-04-08T04:15:37;2.92;;;2.03;;
39044;SDS011;52192;52.002;5.956;2023-04-08T04:18:04;3.25;;;2.67;;
39044;SDS011;52192;52.002;5.956;2023-04-08T04:20:30;4.85;;;2.53;;
39044;SDS011;52192;52.002;5.956;2023-04-08T04:22:56;3.42;;;2.67;;
39044;SDS011;52192;52.002;5.956;2023-04-08T04:25:22;6.38;;;2.88;;
39044;SDS011;52192;52.002;5.956;2023-04-08T04:27:48;4.20;;;3.05;;
39044;SDS011;52192;52.002;5.956;2023-04-08T04:30:13;3.80;;;2.83;;
39044;SDS011;52192;52.002;5.956;2023-04-08T04:32:40;4.03;;;3.15;;
39044;SDS011;52192;52.002;5.956;2023-04-08T04:35:07;3.75;;;3.10;;
39044;SDS011;52192;52.002;5.956;2023-04-08T04:37:34;5.15;;;3.50;;
39044;SDS011;52192;52.002;5.956;2023-04-08T04:40:00;4.65;;;3.20;;
39044;SDS011;52192;52.002;5.956;2023-04-08T04:42:26;5.90;;;3.42;;
39044;SDS011;52192;52.002;5.956;2023-04-08T04:44:52;6.13;;;3.60;;
39044;SDS011;52192;52.002;5.956;2023-04-08T04:47:18;3.83;;;3.00;;
39044;SDS011;52192;52.002;5.956;2023-04-08T04:49:44;3.58;;;2.50;;
39044;SDS011;52192;52.002;5.956;2023-04-08T04:52:10;4.43;;;2.65;;
39044;SDS011;52192;52.002;5.956;2023-04-08T04:54:35;3.65;;;2.92;;
39044;SDS011;52192;52.002;5.956;2023-04-08T04:57:01;5.90;;;3.42;;
39044;SDS011;52192;52.002;5.956;2023-04-08T04:59:27;4.90;;;3.10;;
39044;SDS011;52192;52.002;5.956;2023-04-08T05:01:53;5.57;;;3.08;;
39044;SDS011;52192;52.002;5.956;2023-04-08T05:04:21;4.93;;;3.35;;
39044;SDS011;52192;52.002;5.956;2023-04-08T05:06:47;3.90;;;3.28;;
39044;SDS011;52192;52.002;5.956;2023-04-08T05:09:13;5.90;;;3.60;;
39044;SDS011;52192;52.002;5.956;2023-04-08T05:11:39;6.95;;;3.70;;
39044;SDS011;52192;52.002;5.956;2023-04-08T05:14:05;3.85;;;3.05;;
39044;SDS011;52192;52.002;5.956;2023-04-08T05:16:31;4.20;;;2.55;;
39044;SDS011;52192;52.002;5.956;2023-04-08T05:18:57;5.43;;;3.25;;
39044;SDS011;52192;52.002;5.956;2023-04-08T05:21:23;7.13;;;3.40;;
39044;SDS011;52192;52.002;5.956;2023-04-08T05:23:48;4.80;;;3.10;;
39044;SDS011;52192;52.002;5.956;2023-04-08T05:26:17;4.45;;;3.35;;
39044;SDS011;52192;52.002;5.956;2023-04-08T05:28:47;5.32;;;3.40;;
39044;SDS011;52192;52.002;5.956;2023-04-08T05:31:17;7.47;;;3.92;;
39044;SDS011;52192;52.002;5.956;2023-04-08T05:33:43;5.20;;;3.97;;
39044;SDS011;52192;52.002;5.956;2023-04-08T05:36:12;6.72;;;4.15;;
39044;SDS011;52192;52.002;5.956;2023-04-08T05:38:38;3.88;;;3.33;;
39044;SDS011;52192;52.002;5.956;2023-04-08T05:41:05;3.70;;;2.95;;
39044;SDS011;52192;52.002;5.956;2023-04-08T05:43:34;4.13;;;3.50;;
39044;SDS011;52192;52.002;5.956;2023-04-08T05:46:00;9.57;;;2.97;;
39044;SDS011;52192;52.002;5.956;2023-04-08T05:48:34;4.03;;;2.67;;
39044;SDS011;52192;52.002;5.956;2023-04-08T05:51:00;5.07;;;2.80;;
39044;SDS011;52192;52.002;5.956;2023-04-08T05:53:26;4.03;;;2.97;;
39044;SDS011;52192;52.002;5.956;2023-04-08T05:55:52;4.25;;;3.17;;
39044;SDS011;52192;52.002;5.956;2023-04-08T05:58:17;3.78;;;2.83;;
39044;SDS011;52192;52.002;5.956;2023-04-08T06:00:43;4.72;;;3.15;;
39044;SDS011;52192;52.002;5.956;2023-04-08T06:03:09;3.17;;;2.80;;
39044;SDS011;52192;52.002;5.956;2023-04-08T06:05:34;4.72;;;2.47;;
39044;SDS011;52192;52.002;5.956;2023-04-08T06:08:00;3.17;;;2.83;;
39044;SDS011;52192;52.002;5.956;2023-04-08T06:10:26;3.03;;;2.72;;
39044;SDS011;52192;52.002;5.956;2023-04-08T06:12:51;5.40;;;2.97;;
39044;SDS011;52192;52.002;5.956;2023-04-08T06:15:17;3.47;;;3.00;;
39044;SDS011;52192;52.002;5.956;2023-04-08T06:17:43;3.55;;;2.38;;
39044;SDS011;52192;52.002;5.956;2023-04-08T06:20:09;5.38;;;2.88;;
39044;SDS011;52192;52.002;5.956;2023-04-08T06:22:35;3.03;;;2.22;;
39044;SDS011;52192;52.002;5.956;2023-04-08T06:25:01;3.35;;;2.58;;
39044;SDS011;52192;52.002;5.956;2023-04-08T06:27:27;4.30;;;2.88;;
39044;SDS011;52192;52.002;5.956;2023-04-08T06:29:53;3.30;;;2.70;;
39044;SDS011;52192;52.002;5.956;2023-04-08T06:32:19;5.43;;;2.85;;
39044;SDS011;52192;52.002;5.956;2023-04-08T06:34:45;6.15;;;2.83;;
39044;SDS011;52192;52.002;5.956;2023-04-08T06:37:12;7.15;;;3.15;;
39044;SDS011;52192;52.002;5.956;2023-04-08T06:39:37;5.45;;;2.95;;
39044;SDS011;52192;52.002;5.956;2023-04-08T06:42:03;4.22;;;2.55;;
39044;SDS011;52192;52.002;5.956;2023-04-08T06:44:30;4.28;;;2.33;;
39044;SDS011;52192;52.002;5.956;2023-04-08T06:46:56;2.22;;;1.92;;
39044;SDS011;52192;52.002;5.956;2023-04-08T06:49:21;3.28;;;1.63;;
39044;SDS011;52192;52.002;5.956;2023-04-08T06:51:47;2.13;;;1.92;;
39044;SDS011;52192;52.002;5.956;2023-04-08T06:54:13;4.13;;;2.33;;
39044;SDS011;52192;52.002;5.956;2023-04-08T06:56:39;2.33;;;2.13;;
39044;SDS011;52192;52.002;5.956;2023-04-08T06:59:05;4.65;;;2.75;;
39044;SDS011;52192;52.002;5.956;2023-04-08T07:01:30;3.55;;;2.00;;
39044;SDS011;52192;52.002;5.956;2023-04-08T07:03:56;3.10;;;2.40;;
39044;SDS011;52192;52.002;5.956;2023-04-08T07:06:22;2.78;;;1.65;;
39044;SDS011;52192;52.002;5.956;2023-04-08T07:08:48;4.68;;;2.63;;
39044;SDS011;52192;52.002;5.956;2023-04-08T07:11:14;2.72;;;1.77;;
39044;SDS011;52192;52.002;5.956;2023-04-08T07:13:40;4.32;;;1.80;;
39044;SDS011;52192;52.002;5.956;2023-04-08T07:16:06;2.45;;;1.67;;
39044;SDS011;52192;52.002;5.956;2023-04-08T07:18:32;1.77;;;1.67;;
39044;SDS011;52192;52.002;5.956;2023-04-08T07:20:58;3.00;;;1.70;;
39044;SDS011;52192;52.002;5.956;2023-04-08T07:23:25;3.47;;;1.45;;
39044;SDS011;52192;52.002;5.956;2023-04-08T07:25:51;3.08;;;1.33;;
39044;SDS011;52192;52.002;5.956;2023-04-08T07:28:17;1.42;;;1.33;;
39044;SDS011;52192;52.002;5.956;2023-04-08T07:30:44;1.85;;;1.60;;
39044;SDS011;52192;52.002;5.956;2023-04-08T07:33:09;2.67;;;1.60;;
39044;SDS011;52192;52.002;5.956;2023-04-08T07:35:35;2.60;;;1.90;;
39044;SDS011;52192;52.002;5.956;2023-04-08T07:38:01;2.72;;;1.77;;
39044;SDS011;52192;52.002;5.956;2023-04-08T07:40:27;2.28;;;1.58;;
39044;SDS011;52192;52.002;5.956;2023-04-08T07:42:54;3.13;;;1.50;;
39044;SDS011;52192;52.002;5.956;2023-04-08T07:45:20;2.55;;;1.83;;
39044;SDS011;52192;52.002;5.956;2023-04-08T07:47:46;3.47;;;1.90;;
39044;SDS011;52192;52.002;5.956;2023-04-08T07:50:11;2.22;;;1.40;;
39044;SDS011;52192;52.002;5.956;2023-04-08T07:52:37;1.70;;;1.60;;
39044;SDS011;52192;52.002;5.956;2023-04-08T07:55:03;3.30;;;1.90;;
39044;SDS011;52192;52.002;5.956;2023-04-08T07:57:30;2.65;;;1.45;;
39044;SDS011;52192;52.002;5.956;2023-04-08T07:59:56;2.03;;;1.40;;
39044;SDS011;52192;52.002;5.956;2023-04-08T08:02:21;6.90;;;1.52;;
39044;SDS011;52192;52.002;5.956;2023-04-08T08:04:47;2.25;;;1.52;;
39044;SDS011;52192;52.002;5.956;2023-04-08T08:07:13;1.70;;;1.27;;
39044;SDS011;52192;52.002;5.956;2023-04-08T08:09:39;2.55;;;1.88;;
39044;SDS011;52192;52.002;5.956;2023-04-08T08:12:04;2.47;;;1.40;;
39044;SDS011;52192;52.002;5.956;2023-04-08T08:14:30;1.98;;;1.20;;
39044;SDS011;52192;52.002;5.956;2023-04-08T08:16:56;1.17;;;1.08;;
39044;SDS011;52192;52.002;5.956;2023-04-08T08:19:22;4.45;;;1.73;;
39044;SDS011;52192;52.002;5.956;2023-04-08T08:21:48;3.00;;;1.83;;
39044;SDS011;52192;52.002;5.956;2023-04-08T08:24:14;1.05;;;0.95;;
39044;SDS011;52192;52.002;5.956;2023-04-08T08:26:40;1.58;;;1.45;;
39044;SDS011;52192;52.002;5.956;2023-04-08T08:29:09;2.13;;;1.48;;
39044;SDS011;52192;52.002;5.956;2023-04-08T08:31:34;1.58;;;1.38;;
39044;SDS011;52192;52.002;5.956;2023-04-08T08:34:00;3.13;;;1.77;;
39044;SDS011;52192;52.002;5.956;2023-04-08T08:36:27;1.75;;;1.50;;
39044;SDS011;52192;52.002;5.956;2023-04-08T08:38:53;1.98;;;1.45;;
39044;SDS011;52192;52.002;5.956;2023-04-08T08:41:19;2.00;;;1.48;;
39044;SDS011;52192;52.002;5.956;2023-04-08T08:43:45;2.08;;;1.45;;
39044;SDS011;52192;52.002;5.956;2023-04-08T08:46:14;3.58;;;1.98;;
39044;SDS011;52192;52.002;5.956;2023-04-08T08:48:41;2.65;;;1.63;;
39044;SDS011;52192;52.002;5.956;2023-04-08T08:51:11;1.52;;;1.40;;
39044;SDS011;52192;52.002;5.956;2023-04-08T08:53:37;1.75;;;1.40;;
39044;SDS011;52192;52.002;5.956;2023-04-08T08:56:03;1.77;;;1.35;;
39044;SDS011;52192;52.002;5.956;2023-04-08T08:58:30;2.67;;;1.67;;
39044;SDS011;52192;52.002;5.956;2023-04-08T09:00:56;1.63;;;1.52;;
39044;SDS011;52192;52.002;5.956;2023-04-08T09:03:25;1.90;;;1.52;;
39044;SDS011;52192;52.002;5.956;2023-04-08T09:08:22;3.22;;;1.55;;
39044;SDS011;52192;52.002;5.956;2023-04-08T09:10:56;1.60;;;1.27;;
39044;SDS011;52192;52.002;5.956;2023-04-08T09:13:38;2.20;;;1.50;;
39044;SDS011;52192;52.002;5.956;2023-04-08T09:16:08;1.60;;;1.40;;
39044;SDS011;52192;52.002;5.956;2023-04-08T09:18:35;2.13;;;1.58;;
39044;SDS011;52192;52.002;5.956;2023-04-08T09:21:02;2.67;;;1.70;;
39044;SDS011;52192;52.002;5.956;2023-04-08T09:23:39;3.05;;;2.20;;
39044;SDS011;52192;52.002;5.956;2023-04-08T09:28:37;3.97;;;2.05;;
39044;SDS011;52192;52.002;5.956;2023-04-08T09:33:46;3.10;;;2.42;;
39044;SDS011;52192;52.002;5.956;2023-04-08T09:36:16;2.25;;;1.58;;
39044;SDS011;52192;52.002;5.956;2023-04-08T09:38:42;3.17;;;1.83;;
39044;SDS011;52192;52.002;5.956;2023-04-08T09:41:08;2.10;;;1.88;;
39044;SDS011;52192;52.002;5.956;2023-04-08T09:43:43;5.07;;;2.40;;
39044;SDS011;52192;52.002;5.956;2023-04-08T09:46:14;2.20;;;1.70;;
39044;SDS011;52192;52.002;5.956;2023-04-08T09:48:45;1.70;;;1.60;;
39044;SDS011;52192;52.002;5.956;2023-04-08T09:51:15;3.43;;;1.90;;
39044;SDS011;52192;52.002;5.956;2023-04-08T09:53:47;3.15;;;2.25;;
39044;SDS011;52192;52.002;5.956;2023-04-08T09:56:16;4.00;;;2.10;;
39044;SDS011;52192;52.002;5.956;2023-04-08T10:01:37;4.30;;;2.28;;
39044;SDS011;52192;52.002;5.956;2023-04-08T10:04:06;4.95;;;2.25;;
39044;SDS011;52192;52.002;5.956;2023-04-08T10:06:36;2.40;;;1.80;;
39044;SDS011;52192;52.002;5.956;2023-04-08T10:09:03;3.70;;;2.45;;
39044;SDS011;52192;52.002;5.956;2023-04-08T10:11:31;4.15;;;2.42;;
39044;SDS011;52192;52.002;5.956;2023-04-08T10:13:58;2.05;;;1.50;;
39044;SDS011;52192;52.002;5.956;2023-04-08T10:16:24;2.53;;;1.95;;
39044;SDS011;52192;52.002;5.956;2023-04-08T10:18:52;4.68;;;2.17;;
39044;SDS011;52192;52.002;5.956;2023-04-08T10:21:30;3.63;;;1.73;;
39044;SDS011;52192;52.002;5.956;2023-04-08T10:23:58;2.53;;;1.60;;
39044;SDS011;52192;52.002;5.956;2023-04-08T10:26:38;3.10;;;1.63;;
39044;SDS011;52192;52.002;5.956;2023-04-08T10:31:43;2.10;;;1.70;;
39044;SDS011;52192;52.002;5.956;2023-04-08T10:34:15;3.53;;;2.10;;
39044;SDS011;52192;52.002;5.956;2023-04-08T10:36:42;2.38;;;1.65;;
39044;SDS011;52192;52.002;5.956;2023-04-08T10:39:08;2.83;;;1.92;;
39044;SDS011;52192;52.002;5.956;2023-04-08T10:41:34;3.85;;;2.35;;
39044;SDS011;52192;52.002;5.956;2023-04-08T10:44:13;3.13;;;1.90;;
39044;SDS011;52192;52.002;5.956;2023-04-08T10:46:43;2.75;;;1.70;;
39044;SDS011;52192;52.002;5.956;2023-04-08T10:49:13;2.50;;;1.55;;
39044;SDS011;52192;52.002;5.956;2023-04-08T10:51:39;2.30;;;1.83;;
39044;SDS011;52192;52.002;5.956;2023-04-08T10:54:06;1.60;;;1.50;;
39044;SDS011;52192;52.002;5.956;2023-04-08T11:01:50;2.90;;;1.95;;
39044;SDS011;52192;52.002;5.956;2023-04-08T11:04:16;1.20;;;1.10;;
39044;SDS011;52192;52.002;5.956;2023-04-08T11:06:44;2.75;;;1.63;;
39044;SDS011;52192;52.002;5.956;2023-04-08T11:09:11;1.52;;;1.27;;
39044;SDS011;52192;52.002;5.956;2023-04-08T11:11:40;2.08;;;1.52;;
39044;SDS011;52192;52.002;5.956;2023-04-08T11:14:07;3.53;;;1.45;;
39044;SDS011;52192;52.002;5.956;2023-04-08T11:16:33;3.35;;;1.60;;
39044;SDS011;52192;52.002;5.956;2023-04-08T11:19:01;3.00;;;1.80;;
39044;SDS011;52192;52.002;5.956;2023-04-08T11:21:30;3.15;;;1.45;;
39044;SDS011;52192;52.002;5.956;2023-04-08T11:23:59;1.65;;;1.55;;
39044;SDS011;52192;52.002;5.956;2023-04-08T11:26:25;2.08;;;1.50;;
39044;SDS011;52192;52.002;5.956;2023-04-08T11:28:51;1.63;;;1.10;;
39044;SDS011;52192;52.002;5.956;2023-04-08T11:31:20;1.45;;;0.90;;
39044;SDS011;52192;52.002;5.956;2023-04-08T11:33:47;1.85;;;1.33;;
39044;SDS011;52192;52.002;5.956;2023-04-08T11:36:14;2.90;;;1.35;;
39044;SDS011;52192;52.002;5.956;2023-04-08T11:38:42;1.73;;;1.33;;
39044;SDS011;52192;52.002;5.956;2023-04-08T11:41:08;1.73;;;1.35;;
39044;SDS011;52192;52.002;5.956;2023-04-08T11:43:36;1.15;;;0.93;;
39044;SDS011;52192;52.002;5.956;2023-04-08T11:46:11;2.13;;;1.50;;
39044;SDS011;52192;52.002;5.956;2023-04-08T11:48:37;1.30;;;1.20;;
39044;SDS011;52192;52.002;5.956;2023-04-08T11:51:04;3.00;;;1.38;;
39044;SDS011;52192;52.002;5.956;2023-04-08T11:53:33;1.83;;;1.27;;
39044;SDS011;52192;52.002;5.956;2023-04-08T11:56:16;1.88;;;1.55;;
39044;SDS011;52192;52.002;5.956;2023-04-08T11:58:43;1.20;;;1.10;;
39044;SDS011;52192;52.002;5.956;2023-04-08T12:01:09;2.10;;;1.27;;
39044;SDS011;52192;52.002;5.956;2023-04-08T12:03:35;1.55;;;1.20;;
39044;SDS011;52192;52.002;5.956;2023-04-08T12:06:01;2.38;;;1.42;;
39044;SDS011;52192;52.002;5.956;2023-04-08T12:08:26;1.52;;;1.38;;
39044;SDS011;52192;52.002;5.956;2023-04-08T12:10:52;1.80;;;1.42;;
39044;SDS011;52192;52.002;5.956;2023-04-08T12:13:18;1.50;;;1.40;;
39044;SDS011;52192;52.002;5.956;2023-04-08T12:15:43;2.22;;;1.10;;
39044;SDS011;52192;52.002;5.956;2023-04-08T12:18:09;1.95;;;1.40;;
39044;SDS011;52192;52.002;5.956;2023-04-08T12:20:35;2.72;;;1.38;;
39044;SDS011;52192;52.002;5.956;2023-04-08T12:23:00;1.65;;;1.27;;
39044;SDS011;52192;52.002;5.956;2023-04-08T12:25:26;1.98;;;1.30;;
39044;SDS011;52192;52.002;5.956;2023-04-08T12:27:53;1.42;;;1.33;;
39044;SDS011;52192;52.002;5.956;2023-04-08T12:30:18;1.73;;;1.08;;
39044;SDS011;52192;52.002;5.956;2023-04-08T12:32:45;2.40;;;1.25;;
39044;SDS011;52192;52.002;5.956;2023-04-08T12:35:11;2.60;;;1.20;;
39044;SDS011;52192;52.002;5.956;2023-04-08T12:37:37;1.80;;;1.25;;
39044;SDS011;52192;52.002;5.956;2023-04-08T12:40:03;2.30;;;1.35;;
39044;SDS011;52192;52.002;5.956;2023-04-08T12:42:30;1.88;;;1.23;;
39044;SDS011;52192;52.002;5.956;2023-04-08T12:44:55;2.92;;;1.13;;
39044;SDS011;52192;52.002;5.956;2023-04-08T12:47:21;1.77;;;1.27;;
39044;SDS011;52192;52.002;5.956;2023-04-08T12:49:47;2.33;;;1.40;;
39044;SDS011;52192;52.002;5.956;2023-04-08T12:52:13;2.55;;;1.50;;
39044;SDS011;52192;52.002;5.956;2023-04-08T12:54:39;2.03;;;1.40;;
39044;SDS011;52192;52.002;5.956;2023-04-08T12:57:05;2.08;;;1.50;;
39044;SDS011;52192;52.002;5.956;2023-04-08T12:59:31;2.35;;;1.65;;
39044;SDS011;52192;52.002;5.956;2023-04-08T13:01:57;1.55;;;1.38;;
39044;SDS011;52192;52.002;5.956;2023-04-08T13:04:23;1.73;;;1.05;;
39044;SDS011;52192;52.002;5.956;2023-04-08T13:06:49;1.77;;;1.35;;
39044;SDS011;52192;52.002;5.956;2023-04-08T13:09:15;1.73;;;1.35;;
39044;SDS011;52192;52.002;5.956;2023-04-08T13:11:41;1.65;;;0.90;;
39044;SDS011;52192;52.002;5.956;2023-04-08T13:14:07;2.03;;;1.15;;
39044;SDS011;52192;52.002;5.956;2023-04-08T13:16:32;1.98;;;1.45;;
39044;SDS011;52192;52.002;5.956;2023-04-08T13:18:59;1.38;;;1.15;;
39044;SDS011;52192;52.002;5.956;2023-04-08T13:21:25;2.00;;;1.20;;
39044;SDS011;52192;52.002;5.956;2023-04-08T13:23:51;1.25;;;0.95;;
39044;SDS011;52192;52.002;5.956;2023-04-08T13:26:17;1.98;;;1.58;;
39044;SDS011;52192;52.002;5.956;2023-04-08T13:28:42;1.67;;;1.20;;
39044;SDS011;52192;52.002;5.956;2023-04-08T13:31:08;1.10;;;1.00;;
39044;SDS011;52192;52.002;5.956;2023-04-08T13:33:34;1.83;;;1.17;;
39044;SDS011;52192;52.002;5.956;2023-04-08T13:35:59;3.05;;;1.25;;
39044;SDS011;52192;52.002;5.956;2023-04-08T13:38:25;4.13;;;1.38;;
39044;SDS011;52192;52.002;5.956;2023-04-08T13:40:51;2.20;;;1.20;;
39044;SDS011;52192;52.002;5.956;2023-04-08T13:43:17;2.53;;;1.50;;
39044;SDS011;52192;52.002;5.956;2023-04-08T13:45:43;1.17;;;1.08;;
39044;SDS011;52192;52.002;5.956;2023-04-08T13:48:08;1.25;;;0.93;;
39044;SDS011;52192;52.002;5.956;2023-04-08T13:50:34;1.80;;;1.08;;
39044;SDS011;52192;52.002;5.956;2023-04-08T13:53:00;1.48;;;1.35;;
39044;SDS011;52192;52.002;5.956;2023-04-08T13:55:26;2.33;;;1.45;;
39044;SDS011;52192;52.002;5.956;2023-04-08T13:57:51;2.15;;;1.65;;
39044;SDS011;52192;52.002;5.956;2023-04-08T14:00:17;3.17;;;2.15;;
39044;SDS011;52192;52.002;5.956;2023-04-08T14:02:43;2.35;;;1.10;;
39044;SDS011;52192;52.002;5.956;2023-04-08T14:05:08;2.53;;;1.40;;
39044;SDS011;52192;52.002;5.956;2023-04-08T14:07:34;1.98;;;1.48;;
39044;SDS011;52192;52.002;5.956;2023-04-08T14:10:00;1.63;;;1.35;;
39044;SDS011;52192;52.002;5.956;2023-04-08T14:12:26;1.58;;;1.25;;
39044;SDS011;52192;52.002;5.956;2023-04-08T14:14:51;2.42;;;1.60;;
39044;SDS011;52192;52.002;5.956;2023-04-08T14:17:17;2.03;;;1.52;;
39044;SDS011;52192;52.002;5.956;2023-04-08T14:19:43;1.55;;;1.17;;
39044;SDS011;52192;52.002;5.956;2023-04-08T14:22:08;2.00;;;1.50;;
39044;SDS011;52192;52.002;5.956;2023-04-08T14:24:34;2.08;;;1.60;;
39044;SDS011;52192;52.002;5.956;2023-04-08T14:27:00;2.55;;;1.65;;
39044;SDS011;52192;52.002;5.956;2023-04-08T14:29:26;3.58;;;1.95;;
39044;SDS011;52192;52.002;5.956;2023-04-08T14:31:51;3.15;;;1.90;;
39044;SDS011;52192;52.002;5.956;2023-04-08T14:34:17;3.80;;;1.85;;
39044;SDS011;52192;52.002;5.956;2023-04-08T14:36:43;4.28;;;1.80;;
39044;SDS011;52192;52.002;5.956;2023-04-08T14:39:09;4.03;;;2.33;;
39044;SDS011;52192;52.002;5.956;2023-04-08T14:41:36;3.13;;;1.95;;
39044;SDS011;52192;52.002;5.956;2023-04-08T14:44:01;4.03;;;2.80;;
39044;SDS011;52192;52.002;5.956;2023-04-08T14:46:28;6.03;;;2.75;;
39044;SDS011;52192;52.002;5.956;2023-04-08T14:48:54;4.20;;;2.63;;
39044;SDS011;52192;52.002;5.956;2023-04-08T14:51:19;5.25;;;2.20;;
39044;SDS011;52192;52.002;5.956;2023-04-08T14:53:45;4.20;;;2.85;;
39044;SDS011;52192;52.002;5.956;2023-04-08T14:56:11;4.43;;;2.83;;
39044;SDS011;52192;52.002;5.956;2023-04-08T14:58:37;4.65;;;3.47;;
39044;SDS011;52192;52.002;5.956;2023-04-08T15:01:02;7.32;;;2.80;;
39044;SDS011;52192;52.002;5.956;2023-04-08T15:03:28;3.47;;;2.42;;
39044;SDS011;52192;52.002;5.956;2023-04-08T15:05:54;4.38;;;2.38;;
39044;SDS011;52192;52.002;5.956;2023-04-08T15:08:20;4.28;;;2.63;;
39044;SDS011;52192;52.002;5.956;2023-04-08T15:10:46;3.67;;;2.90;;